createdAt,value
2018-11-22T00:00:23.618Z,5.50
2018-11-22T00:05:34.537Z,5.50
2018-11-22T00:08:22.282Z,5.40
2018-11-22T00:11:10.099Z,5.40
2018-11-22T00:13:57.859Z,5.60
2018-11-22T00:16:45.680Z,5.60
2018-11-22T00:19:33.434Z,5.70
2018-11-22T00:22:21.254Z,5.60
2018-11-22T00:25:10.228Z,5.60
2018-11-22T00:27:58.045Z,5.50
2018-11-22T00:30:45.780Z,5.50
2018-11-22T00:33:33.576Z,5.60
2018-11-22T00:36:21.385Z,5.50
2018-11-22T00:39:09.927Z,5.50
2018-11-22T00:41:57.682Z,5.40
2018-11-22T00:44:45.473Z,5.30
2018-11-22T00:47:33.267Z,5.40
2018-11-22T00:50:21.730Z,5.50
2018-11-22T00:53:09.591Z,5.50
2018-11-22T00:55:57.360Z,5.60
2018-11-22T00:58:45.201Z,5.60
2018-11-22T01:01:33.004Z,5.50
2018-11-22T01:04:20.841Z,5.40
2018-11-22T01:07:08.612Z,5.50
2018-11-22T01:09:56.428Z,5.50
2018-11-22T01:12:45.199Z,5.40
2018-11-22T01:15:32.974Z,5.40
2018-11-22T01:18:20.756Z,5.50
2018-11-22T01:21:08.617Z,5.50
2018-11-22T01:23:49.005Z,5.50
2018-11-22T01:26:17.405Z,5.60
2018-11-22T01:29:05.553Z,5.60
2018-11-22T01:31:53.358Z,5.60
2018-11-22T01:34:41.148Z,5.70
2018-11-22T01:37:28.884Z,5.70
2018-11-22T01:40:17.865Z,5.70
2018-11-22T01:43:05.747Z,5.70
2018-11-22T01:45:53.632Z,5.70
2018-11-22T01:48:41.440Z,5.80
2018-11-22T01:51:29.268Z,5.70
2018-11-22T01:54:17.298Z,5.70
2018-11-22T01:57:05.345Z,5.70
2018-11-22T01:59:53.161Z,5.80
2018-11-22T02:02:41.365Z,5.70
2018-11-22T02:05:29.124Z,5.70
2018-11-22T02:08:16.924Z,5.70
2018-11-22T02:11:04.727Z,5.70
2018-11-22T02:13:52.534Z,5.70
2018-11-22T02:16:40.358Z,5.70
2018-11-22T02:19:28.236Z,5.70
2018-11-22T02:22:16.083Z,5.70
2018-11-22T02:25:03.877Z,5.70
2018-11-22T02:27:51.661Z,5.70
2018-11-22T02:30:39.469Z,5.70
2018-11-22T02:33:27.271Z,5.70
2018-11-22T02:35:55.780Z,5.80
2018-11-22T02:38:43.578Z,5.70
2018-11-22T02:41:31.387Z,5.70
2018-11-22T02:44:19.169Z,5.70
2018-11-22T02:47:06.975Z,5.80
2018-11-22T02:49:54.785Z,5.80
2018-11-22T02:52:42.753Z,5.80
2018-11-22T02:55:30.585Z,5.70
2018-11-22T02:58:18.369Z,5.70
2018-11-22T03:01:06.312Z,5.70
2018-11-22T03:03:54.146Z,5.70
2018-11-22T03:06:41.984Z,5.70
2018-11-22T03:09:29.811Z,5.70
2018-11-22T03:12:10.345Z,5.70
2018-11-22T03:14:51.400Z,5.70
2018-11-22T03:17:31.834Z,5.70
2018-11-22T03:20:12.790Z,5.70
2018-11-22T03:22:53.604Z,5.70
2018-11-22T03:25:34.838Z,5.70
2018-11-22T03:28:15.485Z,5.70
2018-11-22T03:33:37.876Z,5.70
2018-11-22T03:36:19.036Z,5.70
2018-11-22T03:39:00.065Z,5.70
2018-11-22T03:41:40.586Z,5.70
2018-11-22T03:44:21.879Z,5.70
2018-11-22T03:49:50.338Z,5.70
2018-11-22T03:55:14.030Z,5.70
2018-11-22T03:57:55.558Z,5.70
2018-11-22T04:00:36.700Z,5.70
2018-11-22T04:03:17.602Z,5.70
2018-11-22T04:05:58.603Z,5.70
2018-11-22T04:08:38.959Z,5.70
2018-11-22T04:11:19.521Z,5.70
2018-11-22T04:13:59.889Z,5.70
2018-11-22T04:16:47.742Z,5.70
2018-11-22T04:19:35.482Z,5.70
2018-11-22T04:22:23.296Z,5.60
2018-11-22T04:25:12.155Z,5.70
2018-11-22T04:27:59.975Z,5.70
2018-11-22T04:30:47.839Z,5.70
2018-11-22T04:33:35.612Z,5.70
2018-11-22T04:36:23.456Z,5.80
2018-11-22T04:39:11.708Z,5.80
2018-11-22T04:41:59.469Z,5.70
2018-11-22T04:44:39.897Z,5.80
2018-11-22T04:50:02.146Z,5.70
2018-11-22T04:52:43.186Z,5.70
2018-11-22T04:55:24.443Z,5.70
2018-11-22T04:58:04.761Z,5.70
2018-11-22T05:00:45.751Z,5.70
2018-11-22T05:03:26.334Z,5.70
2018-11-22T05:06:07.199Z,5.70
2018-11-22T05:08:48.119Z,5.60
2018-11-22T05:11:28.635Z,5.60
2018-11-22T05:14:09.245Z,5.60
2018-11-22T05:16:50.581Z,5.60
2018-11-22T05:19:19.000Z,5.60
2018-11-22T05:22:06.811Z,5.60
2018-11-22T05:24:54.617Z,5.50
2018-11-22T05:27:42.464Z,5.40
2018-11-22T05:30:30.375Z,5.50
2018-11-22T05:36:25.155Z,5.60
2018-11-22T05:39:12.944Z,5.70
2018-11-22T05:42:00.949Z,5.80
2018-11-22T05:44:48.696Z,5.80
2018-11-22T05:47:36.462Z,5.80
2018-11-22T05:50:25.768Z,5.80
2018-11-22T05:53:13.487Z,5.80
2018-11-22T05:56:01.346Z,5.90
2018-11-22T05:58:49.144Z,5.90
2018-11-22T06:01:36.972Z,5.90
2018-11-22T06:04:24.712Z,6.00
2018-11-22T06:07:12.550Z,6.00
2018-11-22T06:10:00.407Z,6.10
2018-11-22T06:12:48.820Z,6.20
2018-11-22T06:15:36.550Z,6.10
2018-11-22T06:18:24.432Z,6.00
2018-11-22T06:21:12.190Z,5.80
2018-11-22T06:23:59.999Z,5.80
2018-11-22T06:26:47.750Z,5.70
2018-11-22T06:29:35.576Z,5.70
2018-11-22T06:32:23.318Z,5.70
2018-11-22T06:35:11.278Z,5.70
2018-11-22T06:37:59.194Z,5.70
2018-11-22T06:40:47.038Z,5.60
2018-11-22T06:43:34.843Z,5.60
2018-11-22T06:46:22.710Z,5.50
2018-11-22T06:49:10.490Z,5.50
2018-11-22T06:51:39.039Z,5.60
2018-11-22T06:54:26.869Z,5.60
2018-11-22T06:57:14.666Z,5.60
2018-11-22T07:00:02.558Z,5.60
2018-11-22T07:02:51.758Z,5.70
2018-11-22T07:05:39.479Z,5.60
2018-11-22T07:08:27.291Z,5.60
2018-11-22T07:11:15.107Z,5.60
2018-11-22T07:14:02.961Z,5.70
2018-11-22T07:16:50.791Z,5.70
2018-11-22T07:22:46.531Z,5.60
2018-11-22T07:25:27.242Z,5.70
2018-11-22T07:28:08.427Z,5.60
2018-11-22T07:30:49.511Z,5.70
2018-11-22T07:33:30.392Z,5.60
2018-11-22T07:36:11.161Z,5.70
2018-11-22T07:38:52.008Z,5.70
2018-11-22T07:41:32.892Z,5.70
2018-11-22T07:44:14.033Z,5.80
2018-11-22T07:46:55.112Z,5.90
2018-11-22T07:49:36.026Z,5.90
2018-11-22T07:52:16.828Z,5.90
2018-11-22T07:54:55.735Z,5.80
2018-11-22T07:57:43.616Z,5.90
2018-11-22T08:00:50.521Z,5.80
2018-11-22T08:06:25.861Z,5.80
2018-11-22T08:09:13.691Z,5.80
2018-11-22T08:12:01.512Z,5.80
2018-11-22T08:14:49.252Z,5.90
2018-11-22T08:17:37.070Z,5.80
2018-11-22T08:23:18.700Z,5.80
2018-11-22T08:26:06.533Z,5.80
2018-11-22T08:28:54.358Z,5.80
2018-11-22T08:31:42.138Z,5.80
2018-11-22T08:34:29.957Z,5.90
2018-11-22T08:37:17.733Z,5.90
2018-11-22T08:40:26.510Z,5.90
2018-11-22T08:43:14.248Z,5.90
2018-11-22T08:46:02.110Z,5.90
2018-11-22T08:48:49.789Z,6.00
2018-11-22T08:51:38.005Z,6.00
2018-11-22T08:54:25.791Z,5.90
2018-11-22T08:57:13.598Z,6.00
2018-11-22T08:59:41.992Z,6.00
2018-11-22T09:02:49.159Z,6.00
2018-11-22T09:05:37.718Z,6.00
2018-11-22T09:08:25.559Z,6.00
2018-11-22T09:11:13.300Z,6.00
2018-11-22T09:14:03.590Z,5.90
2018-11-22T09:16:51.723Z,5.80
2018-11-22T09:19:39.506Z,5.90
2018-11-22T09:22:27.333Z,6.00
2018-11-22T09:25:16.007Z,6.00
2018-11-22T09:28:03.984Z,6.00
2018-11-22T09:30:53.009Z,6.00
2018-11-22T09:33:40.743Z,5.90
2018-11-22T09:36:28.573Z,6.00
2018-11-22T09:38:56.962Z,5.90
2018-11-22T09:41:44.745Z,6.00
2018-11-22T09:44:32.494Z,6.10
2018-11-22T09:47:20.342Z,6.20
2018-11-22T09:50:08.501Z,6.20
2018-11-22T09:52:57.400Z,6.10
2018-11-22T09:55:45.187Z,6.20
2018-11-22T09:58:32.957Z,6.20
2018-11-22T10:01:20.770Z,6.20
2018-11-22T10:04:08.592Z,6.30
2018-11-22T10:06:56.426Z,6.30
2018-11-22T10:09:44.180Z,6.30
2018-11-22T10:12:32.080Z,6.20
2018-11-22T10:15:21.282Z,6.30
2018-11-22T10:18:09.114Z,6.30
2018-11-22T10:20:57.141Z,6.40
2018-11-22T10:26:38.753Z,6.40
2018-11-22T10:29:26.557Z,6.40
2018-11-22T10:32:14.339Z,6.40
2018-11-22T10:35:02.097Z,6.50
2018-11-22T10:37:49.950Z,6.60
2018-11-22T10:40:37.714Z,6.60
2018-11-22T10:43:25.478Z,6.60
2018-11-22T10:46:13.302Z,6.50
2018-11-22T10:49:01.219Z,6.60
2018-11-22T10:51:48.951Z,6.60
2018-11-22T10:54:36.795Z,6.70
2018-11-22T10:57:24.549Z,6.70
2018-11-22T11:00:50.906Z,6.70
2018-11-22T11:03:58.654Z,6.70
2018-11-22T11:07:05.603Z,6.60
2018-11-22T11:09:53.466Z,6.50
2018-11-22T11:12:41.372Z,6.50
2018-11-22T11:15:29.171Z,6.50
2018-11-22T11:18:16.896Z,6.50
2018-11-22T11:21:04.780Z,6.60
2018-11-22T11:23:52.618Z,6.70
2018-11-22T11:26:40.340Z,6.90
2018-11-22T11:29:28.994Z,7.10
2018-11-22T11:32:16.730Z,7.30
2018-11-22T11:35:04.734Z,7.50
2018-11-22T11:37:52.569Z,7.50
2018-11-22T11:40:41.529Z,7.70
2018-11-22T11:43:29.481Z,7.70
2018-11-22T11:46:17.318Z,7.80
2018-11-22T11:49:05.258Z,7.80
2018-11-22T11:51:53.115Z,7.90
2018-11-22T11:54:41.143Z,7.80
2018-11-22T11:57:30.301Z,7.70
2018-11-22T12:00:20.053Z,7.60
2018-11-22T12:03:07.907Z,7.60
2018-11-22T12:05:55.657Z,7.40
2018-11-22T12:08:43.503Z,7.40
2018-11-22T12:11:31.281Z,7.30
2018-11-22T12:14:19.076Z,7.10
2018-11-22T12:17:06.838Z,7.10
2018-11-22T12:19:54.785Z,7.10
2018-11-22T12:22:43.977Z,7.20
2018-11-22T12:25:31.800Z,7.20
2018-11-22T12:28:19.600Z,7.20
2018-11-22T12:31:07.450Z,7.20
2018-11-22T12:34:14.425Z,7.10
2018-11-22T12:37:21.500Z,7.20
2018-11-22T12:40:10.909Z,7.10
2018-11-22T12:42:58.751Z,7.10
2018-11-22T12:45:46.505Z,7.10
2018-11-22T12:48:34.471Z,7.00
2018-11-22T12:51:22.333Z,6.90
2018-11-22T12:54:10.081Z,6.90
2018-11-22T12:56:57.935Z,7.00
2018-11-22T12:59:45.777Z,7.00
2018-11-22T13:02:26.196Z,7.00
2018-11-22T13:04:54.705Z,7.00
2018-11-22T13:07:42.631Z,7.00
2018-11-22T13:10:30.390Z,7.00
2018-11-22T13:13:18.239Z,6.90
2018-11-22T13:15:46.630Z,6.90
2018-11-22T13:18:34.482Z,7.00
2018-11-22T13:21:22.303Z,7.10
2018-11-22T13:24:10.081Z,7.10
2018-11-22T13:26:57.906Z,7.10
2018-11-22T13:29:45.677Z,7.10
2018-11-22T13:32:33.493Z,7.00
2018-11-22T13:35:21.315Z,7.00
2018-11-22T13:38:09.203Z,7.00
2018-11-22T13:40:56.979Z,6.90
2018-11-22T13:43:44.834Z,6.80
2018-11-22T13:46:32.637Z,6.90
2018-11-22T13:52:14.613Z,6.90
2018-11-22T13:55:03.391Z,6.90
2018-11-22T13:57:50.224Z,6.90
2018-11-22T14:00:38.242Z,6.80
2018-11-22T14:03:26.073Z,6.70
2018-11-22T14:06:13.824Z,6.60
2018-11-22T14:09:01.880Z,6.60
2018-11-22T14:11:50.039Z,6.60
2018-11-22T14:14:38.154Z,6.70
2018-11-22T14:17:26.281Z,6.60
2018-11-22T14:20:33.206Z,6.60
2018-11-22T14:23:20.969Z,6.60
2018-11-22T14:26:08.820Z,6.70
2018-11-22T14:28:56.587Z,6.60
2018-11-22T14:31:44.405Z,6.60
2018-11-22T14:34:32.135Z,6.60
2018-11-22T14:37:20.035Z,6.60
2018-11-22T14:40:09.012Z,6.70
2018-11-22T14:42:58.124Z,6.60
2018-11-22T14:45:45.977Z,6.60
2018-11-22T14:48:33.821Z,6.60
2018-11-22T14:51:40.944Z,6.50
2018-11-22T14:54:29.131Z,6.50
2018-11-22T14:57:17.351Z,6.40
2018-11-22T15:00:06.883Z,6.40
2018-11-22T15:02:54.825Z,6.40
2018-11-22T15:05:42.614Z,6.40
2018-11-22T15:08:30.857Z,6.40
2018-11-22T15:11:19.425Z,6.30
2018-11-22T15:14:10.930Z,6.20
2018-11-22T15:17:01.797Z,6.30
2018-11-22T15:19:49.625Z,6.30
2018-11-22T15:22:38.051Z,6.30
2018-11-22T15:25:29.076Z,6.30
2018-11-22T15:28:17.086Z,6.20
2018-11-22T15:31:05.051Z,6.20
2018-11-22T15:33:52.952Z,6.30
2018-11-22T15:36:40.701Z,6.30
2018-11-22T15:39:28.611Z,6.20
2018-11-22T15:42:16.380Z,6.30
2018-11-22T15:45:04.419Z,6.30
2018-11-22T15:47:52.273Z,6.30
2018-11-22T15:50:40.028Z,6.30
2018-11-22T15:53:27.904Z,6.20
2018-11-22T15:56:15.698Z,6.20
2018-11-22T15:59:03.514Z,6.10
2018-11-22T16:01:51.452Z,6.10
2018-11-22T16:04:39.278Z,6.00
2018-11-22T16:07:27.467Z,5.90
2018-11-22T16:10:17.334Z,5.90
2018-11-22T16:13:25.252Z,5.70
2018-11-22T16:16:05.923Z,5.70
2018-11-22T16:18:47.347Z,5.70
2018-11-22T16:21:27.849Z,5.80
2018-11-22T16:24:08.809Z,5.70
2018-11-22T16:26:50.004Z,5.80
2018-11-22T16:29:30.492Z,5.70
2018-11-22T16:32:11.414Z,5.70
2018-11-22T16:34:52.355Z,5.60
2018-11-22T16:37:31.413Z,5.60
2018-11-22T16:40:38.540Z,5.70
2018-11-22T16:43:26.370Z,5.60
2018-11-22T16:45:57.255Z,5.50
2018-11-22T16:48:45.044Z,5.40
2018-11-22T16:51:32.794Z,5.40
2018-11-22T16:54:20.621Z,5.40
2018-11-22T16:57:08.343Z,5.40
2018-11-22T16:59:56.152Z,5.40
2018-11-22T17:02:44.097Z,5.40
2018-11-22T17:05:32.403Z,5.30
2018-11-22T17:08:20.122Z,5.30
2018-11-22T17:11:08.370Z,5.30
2018-11-22T17:13:56.516Z,5.30
2018-11-22T17:16:44.307Z,5.30
2018-11-22T17:19:32.306Z,5.30
2018-11-22T17:22:20.216Z,5.30
2018-11-22T17:25:09.449Z,5.40
2018-11-22T17:27:59.233Z,5.40
2018-11-22T17:30:46.969Z,5.40
2018-11-22T17:33:34.787Z,5.30
2018-11-22T17:36:22.673Z,5.20
2018-11-22T17:39:12.711Z,5.20
2018-11-22T17:42:00.536Z,5.20
2018-11-22T17:44:56.563Z,5.20
2018-11-22T17:47:44.709Z,5.10
2018-11-22T17:53:27.860Z,5.00
2018-11-22T17:56:16.626Z,5.00
2018-11-22T17:58:45.206Z,4.90
2018-11-22T18:01:32.939Z,4.90
2018-11-22T18:04:20.761Z,4.90
2018-11-22T18:07:08.516Z,4.90
2018-11-22T18:09:56.381Z,4.90
2018-11-22T18:12:45.186Z,4.90
2018-11-22T18:15:52.182Z,4.90
2018-11-22T18:21:28.057Z,4.70
2018-11-22T18:23:56.584Z,4.70
2018-11-22T18:26:25.118Z,4.70
2018-11-22T18:29:12.870Z,4.60
2018-11-22T18:32:00.778Z,4.60
2018-11-22T18:34:48.525Z,4.40
2018-11-22T18:37:36.437Z,4.40
2018-11-22T18:40:25.500Z,4.30
2018-11-22T18:43:13.278Z,4.20
2018-11-22T18:46:01.114Z,4.20
2018-11-22T18:48:48.953Z,4.20
2018-11-22T18:51:36.731Z,4.00
2018-11-22T18:54:24.559Z,4.00
2018-11-22T18:57:12.313Z,3.90
2018-11-22T19:00:00.119Z,3.80
2018-11-22T19:02:28.560Z,3.70
2018-11-22T19:05:16.914Z,3.70
2018-11-22T19:08:04.710Z,3.70
2018-11-22T19:10:52.565Z,3.60
2018-11-22T19:13:40.335Z,3.60
2018-11-22T19:16:28.458Z,3.40
2018-11-22T19:19:16.296Z,3.30
2018-11-22T19:22:04.174Z,3.30
2018-11-22T19:24:52.001Z,3.30
2018-11-22T19:27:39.952Z,3.30
2018-11-22T19:30:28.984Z,3.30
2018-11-22T19:33:18.160Z,3.30
2018-11-22T19:36:06.384Z,3.20
2018-11-22T19:38:34.944Z,3.10
2018-11-22T19:41:22.888Z,3.20
2018-11-22T19:44:11.910Z,3.10
2018-11-22T19:50:15.316Z,3.00
2018-11-22T19:56:18.246Z,3.00
2018-11-22T19:59:06.868Z,3.10
2018-11-22T20:02:03.201Z,3.10
2018-11-22T20:10:42.274Z,2.90
2018-11-22T20:23:31.505Z,2.90
2018-11-22T20:26:27.794Z,2.90
2018-11-22T20:32:08.112Z,2.70
2018-11-22T20:44:09.047Z,2.70
2018-11-22T20:46:56.792Z,2.70
2018-11-22T20:49:44.632Z,2.60
2018-11-22T20:52:32.426Z,2.60
2018-11-22T20:55:30.782Z,2.60
2018-11-22T20:58:18.555Z,2.50
2018-11-22T21:01:06.400Z,2.60
2018-11-22T21:07:01.699Z,2.60
2018-11-22T21:09:49.491Z,2.40
2018-11-22T21:12:37.494Z,2.50
2018-11-22T21:15:26.564Z,2.40
2018-11-22T21:18:14.362Z,2.50
2018-11-22T21:21:02.162Z,2.60
2018-11-22T21:23:50.031Z,2.50
2018-11-22T21:26:37.766Z,2.40
2018-11-22T21:29:25.600Z,2.50
2018-11-22T21:32:13.428Z,2.50
2018-11-22T21:35:01.329Z,2.30
2018-11-22T21:37:50.035Z,2.30
2018-11-22T21:40:38.515Z,2.30
2018-11-22T21:43:26.517Z,2.30
2018-11-22T21:46:14.498Z,2.40
2018-11-22T21:49:03.211Z,2.40
2018-11-22T21:51:39.256Z,2.50
2018-11-22T21:54:20.126Z,2.40
2018-11-22T21:57:08.005Z,2.40
2018-11-22T21:59:55.771Z,2.30
2018-11-22T22:02:43.728Z,2.30
2018-11-22T22:05:31.611Z,2.20
2018-11-22T22:08:19.555Z,2.20
2018-11-22T22:11:07.720Z,2.30
2018-11-22T22:13:55.474Z,2.30
2018-11-22T22:16:43.391Z,2.30
2018-11-22T22:19:31.386Z,2.20
2018-11-22T22:22:19.156Z,2.20
2018-11-22T22:25:08.285Z,2.30
2018-11-22T22:27:56.556Z,2.20
2018-11-22T22:30:44.383Z,2.20
2018-11-22T22:33:32.315Z,2.10
2018-11-22T22:36:20.509Z,2.10
2018-11-22T22:39:08.890Z,2.10
2018-11-22T22:41:56.650Z,2.10
2018-11-22T22:44:44.550Z,2.10
2018-11-22T22:47:32.310Z,2.10
2018-11-22T22:50:21.335Z,2.00
2018-11-22T22:53:09.145Z,2.00
2018-11-22T22:55:37.713Z,2.10
2018-11-22T22:58:25.516Z,2.10
2018-11-22T23:01:13.414Z,2.10
2018-11-22T23:04:01.245Z,2.10
2018-11-22T23:07:08.312Z,2.00
2018-11-22T23:09:56.191Z,2.00
2018-11-22T23:12:44.148Z,2.00
2018-11-22T23:15:32.551Z,1.90
2018-11-22T23:18:20.386Z,1.80
2018-11-22T23:21:08.285Z,1.90
2018-11-22T23:23:56.135Z,1.90
2018-11-22T23:26:44.062Z,2.00
2018-11-22T23:29:24.447Z,2.00
2018-11-22T23:32:04.736Z,2.00
2018-11-22T23:34:45.876Z,1.90
2018-11-22T23:37:26.597Z,2.00
2018-11-22T23:40:07.224Z,1.90
2018-11-22T23:42:48.218Z,1.90
2018-11-22T23:45:29.808Z,1.90
2018-11-22T23:48:11.002Z,1.80
2018-11-22T23:50:51.370Z,1.90
2018-11-22T23:53:32.135Z,1.90
2018-11-22T23:56:13.038Z,1.90
2018-11-22T23:58:54.281Z,1.90
